createdAt,value
2019-03-09T00:01:55.158Z,80.85
2019-03-09T00:04:24.686Z,81.32
2019-03-09T00:07:13.532Z,81.58
2019-03-09T00:09:43.403Z,80.92
2019-03-09T00:12:12.892Z,81.04
2019-03-09T00:14:42.430Z,80.78
2019-03-09T00:17:11.921Z,80.26
2019-03-09T00:19:41.419Z,80.83
2019-03-09T00:22:10.927Z,80.90
2019-03-09T00:24:44.545Z,80.26
2019-03-09T00:27:15.644Z,80.82
2019-03-09T00:29:49.467Z,81.28
2019-03-09T00:32:20.732Z,81.16
2019-03-09T00:34:50.244Z,83.01
2019-03-09T00:37:19.732Z,83.27
2019-03-09T00:39:49.290Z,86.08
2019-03-09T00:42:18.760Z,85.55
2019-03-09T00:44:48.324Z,89.40
2019-03-09T00:47:17.822Z,89.56
2019-03-09T00:49:47.322Z,93.79
2019-03-09T00:52:16.821Z,94.82
2019-03-09T00:54:46.312Z,94.47
2019-03-09T00:57:15.914Z,95.71
2019-03-09T00:59:45.397Z,100.00
2019-03-09T01:02:15.260Z,97.53
2019-03-09T01:04:44.739Z,98.90
2019-03-09T01:07:14.314Z,100.00
2019-03-09T01:09:43.836Z,100.00
2019-03-09T01:12:13.354Z,99.94
2019-03-09T01:14:42.932Z,100.00
2019-03-09T01:17:12.465Z,100.00
2019-03-09T01:19:42.014Z,100.00
2019-03-09T01:22:11.653Z,100.00
2019-03-09T01:24:41.189Z,100.00
2019-03-09T01:27:10.661Z,100.00
2019-03-09T01:29:40.156Z,100.00
2019-03-09T01:32:09.643Z,100.00
2019-03-09T01:34:39.176Z,100.00
2019-03-09T01:37:08.737Z,100.00
2019-03-09T01:39:38.286Z,100.00
2019-03-09T01:42:07.833Z,100.00
2019-03-09T01:44:37.319Z,100.00
2019-03-09T01:47:06.828Z,100.00
2019-03-09T01:49:36.373Z,100.00
2019-03-09T01:52:06.010Z,100.00
2019-03-09T01:54:35.504Z,100.00
2019-03-09T01:57:04.982Z,100.00
2019-03-09T01:59:34.470Z,100.00
2019-03-09T02:02:04.011Z,100.00
2019-03-09T02:04:33.488Z,100.00
2019-03-09T02:07:02.983Z,100.00
2019-03-09T02:09:32.559Z,100.00
2019-03-09T02:12:02.120Z,100.00
2019-03-09T02:14:31.623Z,100.00
2019-03-09T02:17:01.135Z,100.00
2019-03-09T02:19:30.608Z,100.00
2019-03-09T02:22:00.113Z,100.00
2019-03-09T02:24:29.664Z,100.00
2019-03-09T02:26:59.167Z,100.00
2019-03-09T02:29:28.714Z,100.00
2019-03-09T02:31:58.223Z,100.00
2019-03-09T02:34:27.715Z,100.00
2019-03-09T02:36:57.225Z,100.00
2019-03-09T02:39:31.039Z,100.00
2019-03-09T02:42:00.805Z,100.00
2019-03-09T02:44:30.296Z,100.00
2019-03-09T02:46:59.812Z,100.00
2019-03-09T02:49:29.306Z,100.00
2019-03-09T02:51:58.811Z,100.00
2019-03-09T02:54:28.291Z,100.00
2019-03-09T02:56:57.802Z,100.00
2019-03-09T02:59:27.297Z,100.00
2019-03-09T03:01:58.472Z,100.00
2019-03-09T03:04:27.965Z,100.00
2019-03-09T03:06:57.443Z,100.00
2019-03-09T03:09:26.982Z,100.00
2019-03-09T03:11:56.470Z,100.00
2019-03-09T03:14:25.966Z,100.00
2019-03-09T03:16:55.456Z,100.00
2019-03-09T03:19:24.949Z,100.00
2019-03-09T03:21:54.431Z,100.00
2019-03-09T03:24:23.929Z,100.00
2019-03-09T03:26:53.414Z,100.00
2019-03-09T03:29:22.911Z,100.00
2019-03-09T03:31:52.399Z,100.00
2019-03-09T03:34:21.927Z,100.00
2019-03-09T03:36:51.458Z,100.00
2019-03-09T03:39:20.953Z,100.00
2019-03-09T03:41:50.521Z,100.00
2019-03-09T03:44:20.019Z,100.00
2019-03-09T03:46:49.566Z,100.00
2019-03-09T03:49:19.098Z,100.00
2019-03-09T03:51:48.567Z,100.00
2019-03-09T03:54:18.073Z,100.00
2019-03-09T03:56:47.768Z,100.00
2019-03-09T03:59:17.444Z,100.00
2019-03-09T04:01:47.109Z,100.00
2019-03-09T04:04:16.796Z,100.00
2019-03-09T04:06:46.339Z,100.00
2019-03-09T04:09:15.980Z,100.00
2019-03-09T04:11:45.902Z,100.00
2019-03-09T04:14:15.471Z,100.00
2019-03-09T04:16:44.953Z,100.00
2019-03-09T04:19:14.451Z,100.00
2019-03-09T04:21:44.113Z,100.00
2019-03-09T04:24:13.636Z,100.00
2019-03-09T04:26:43.203Z,100.00
2019-03-09T04:29:12.846Z,100.00
2019-03-09T04:31:42.350Z,100.00
2019-03-09T04:34:11.846Z,100.00
2019-03-09T04:36:41.322Z,100.00
2019-03-09T04:39:10.814Z,100.00
2019-03-09T04:41:40.398Z,100.00
2019-03-09T04:44:09.916Z,100.00
2019-03-09T04:46:39.414Z,100.00
2019-03-09T04:49:08.910Z,100.00
2019-03-09T04:51:38.396Z,100.00
2019-03-09T04:54:07.918Z,100.00
2019-03-09T04:56:37.406Z,100.00
2019-03-09T04:59:06.923Z,100.00
2019-03-09T05:01:36.465Z,100.00
2019-03-09T05:04:32.867Z,100.00
2019-03-09T05:07:02.363Z,100.00
2019-03-09T05:09:51.868Z,100.00
2019-03-09T05:12:21.363Z,100.00
2019-03-09T05:14:50.878Z,100.00
2019-03-09T05:17:20.383Z,100.00
2019-03-09T05:19:49.867Z,100.00
2019-03-09T05:22:19.463Z,100.00
2019-03-09T05:24:48.948Z,100.00
2019-03-09T05:27:18.450Z,100.00
2019-03-09T05:29:47.925Z,100.00
2019-03-09T05:32:17.422Z,100.00
2019-03-09T05:34:46.923Z,100.00
2019-03-09T05:37:16.410Z,100.00
2019-03-09T05:39:45.925Z,100.00
2019-03-09T05:42:15.413Z,100.00
2019-03-09T05:44:44.911Z,100.00
2019-03-09T05:47:14.425Z,100.00
2019-03-09T05:49:43.942Z,100.00
2019-03-09T05:52:24.403Z,100.00
2019-03-09T05:54:53.906Z,100.00
2019-03-09T05:57:23.385Z,100.00
2019-03-09T05:59:52.885Z,100.00
2019-03-09T06:02:22.463Z,100.00
2019-03-09T06:04:52.015Z,100.00
2019-03-09T06:07:21.565Z,100.00
2019-03-09T06:09:51.019Z,100.00
2019-03-09T06:12:20.519Z,100.00
2019-03-09T06:14:50.223Z,100.00
2019-03-09T06:17:19.724Z,100.00
2019-03-09T06:19:49.401Z,100.00
2019-03-09T06:22:18.967Z,100.00
2019-03-09T06:25:07.944Z,100.00
2019-03-09T06:27:37.438Z,100.00
2019-03-09T06:30:08.732Z,100.00
2019-03-09T06:32:42.897Z,100.00
2019-03-09T06:35:25.261Z,100.00
2019-03-09T06:38:23.627Z,100.00
2019-03-09T06:41:02.468Z,100.00
2019-03-09T06:43:24.361Z,100.00
2019-03-09T06:45:53.865Z,100.00
2019-03-09T06:48:23.354Z,100.00
2019-03-09T06:50:52.831Z,100.00
2019-03-09T06:53:22.350Z,100.00
2019-03-09T06:55:51.834Z,100.00
2019-03-09T06:58:21.348Z,100.00
2019-03-09T07:00:50.850Z,100.00
2019-03-09T07:03:20.340Z,100.00
2019-03-09T07:05:49.831Z,100.00
2019-03-09T07:08:19.390Z,100.00
2019-03-09T07:10:49.002Z,100.00
2019-03-09T07:13:18.539Z,100.00
2019-03-09T07:15:48.218Z,100.00
2019-03-09T07:18:18.382Z,100.00
2019-03-09T07:20:48.029Z,100.00
2019-03-09T07:23:17.528Z,100.00
2019-03-09T07:25:47.161Z,100.00
2019-03-09T07:28:16.951Z,100.00
2019-03-09T07:30:46.521Z,100.00
2019-03-09T07:33:15.995Z,100.00
2019-03-09T07:35:45.582Z,100.00
2019-03-09T07:38:15.145Z,100.00
2019-03-09T07:40:44.700Z,100.00
2019-03-09T07:43:14.218Z,100.00
2019-03-09T07:45:43.864Z,100.00
2019-03-09T07:48:13.540Z,100.00
2019-03-09T07:50:43.120Z,100.00
2019-03-09T07:53:12.742Z,100.00
2019-03-09T07:55:42.262Z,100.00
2019-03-09T07:58:11.765Z,100.00
2019-03-09T08:00:41.337Z,100.00
2019-03-09T08:03:11.004Z,100.00
2019-03-09T08:05:40.522Z,99.94
2019-03-09T08:08:09.967Z,99.43
2019-03-09T08:10:39.536Z,99.07
2019-03-09T08:13:09.099Z,100.00
2019-03-09T08:15:38.784Z,99.99
2019-03-09T08:18:08.268Z,98.98
2019-03-09T08:20:37.847Z,97.45
2019-03-09T08:23:07.318Z,98.62
2019-03-09T08:25:36.811Z,98.71
2019-03-09T08:28:06.462Z,98.52
2019-03-09T08:30:36.052Z,99.49
2019-03-09T08:33:05.613Z,97.41
2019-03-09T08:35:35.229Z,97.22
2019-03-09T08:38:04.846Z,98.79
2019-03-09T08:40:34.516Z,98.83
2019-03-09T08:43:03.998Z,97.45
2019-03-09T08:45:33.615Z,98.81
2019-03-09T08:48:03.113Z,97.06
2019-03-09T08:50:32.627Z,97.73
2019-03-09T08:53:02.108Z,98.20
2019-03-09T08:55:31.623Z,96.20
2019-03-09T08:58:01.115Z,95.64
2019-03-09T09:00:35.576Z,94.31
2019-03-09T09:03:05.202Z,94.35
2019-03-09T09:05:34.712Z,93.26
2019-03-09T09:08:04.242Z,91.79
2019-03-09T09:10:33.769Z,91.27
2019-03-09T09:13:03.266Z,91.90
2019-03-09T09:15:32.760Z,91.29
2019-03-09T09:18:02.297Z,90.86
2019-03-09T09:20:31.795Z,89.55
2019-03-09T09:23:01.280Z,89.68
2019-03-09T09:25:30.810Z,88.20
2019-03-09T09:28:00.400Z,88.00
2019-03-09T09:30:31.710Z,88.01
2019-03-09T09:33:01.184Z,87.70
2019-03-09T09:35:30.765Z,88.56
2019-03-09T09:38:00.277Z,86.68
2019-03-09T09:40:29.831Z,88.36
2019-03-09T09:42:59.409Z,88.86
2019-03-09T09:45:29.005Z,88.94
2019-03-09T09:47:58.480Z,88.21
2019-03-09T09:50:27.978Z,89.50
2019-03-09T09:52:57.472Z,87.10
2019-03-09T09:55:27.032Z,87.38
2019-03-09T09:57:57.806Z,88.68
2019-03-09T10:00:28.989Z,87.54
2019-03-09T10:02:58.520Z,85.31
2019-03-09T10:05:28.006Z,84.98
2019-03-09T10:07:57.511Z,86.31
2019-03-09T10:10:27.005Z,86.31
2019-03-09T10:12:56.603Z,85.53
2019-03-09T10:15:30.042Z,85.33
2019-03-09T10:17:59.669Z,82.55
2019-03-09T10:20:29.209Z,79.97
2019-03-09T10:23:04.028Z,78.53
2019-03-09T10:25:29.958Z,79.21
2019-03-09T10:27:59.449Z,77.72
2019-03-09T10:30:29.104Z,76.32
2019-03-09T10:32:58.603Z,77.97
2019-03-09T10:35:28.083Z,76.12
2019-03-09T10:37:57.596Z,76.64
2019-03-09T10:40:27.085Z,75.70
2019-03-09T10:42:56.623Z,77.47
2019-03-09T10:45:26.104Z,76.95
2019-03-09T10:47:55.674Z,77.21
2019-03-09T10:50:26.082Z,77.26
2019-03-09T10:52:55.715Z,76.74
2019-03-09T10:55:33.629Z,76.30
2019-03-09T10:58:03.227Z,76.52
2019-03-09T11:00:42.227Z,76.07
2019-03-09T11:03:11.789Z,75.71
2019-03-09T11:05:41.355Z,75.06
2019-03-09T11:08:11.022Z,75.44
2019-03-09T11:10:40.527Z,74.76
2019-03-09T11:13:10.029Z,76.93
2019-03-09T11:15:39.574Z,76.20
2019-03-09T11:18:09.057Z,76.10
2019-03-09T11:20:38.625Z,74.59
2019-03-09T11:23:08.264Z,74.72
2019-03-09T11:25:37.698Z,75.10
2019-03-09T11:28:12.899Z,73.07
2019-03-09T11:30:42.517Z,73.64
2019-03-09T11:33:12.080Z,72.58
2019-03-09T11:35:41.591Z,73.38
2019-03-09T11:38:12.037Z,72.85
2019-03-09T11:40:41.590Z,70.55
2019-03-09T11:43:11.149Z,70.64
2019-03-09T11:45:40.872Z,70.52
2019-03-09T11:48:10.445Z,71.15
2019-03-09T11:50:39.947Z,69.52
2019-03-09T11:53:09.538Z,66.95
2019-03-09T11:55:39.023Z,65.55
2019-03-09T11:58:08.579Z,67.52
2019-03-09T12:00:39.724Z,66.14
2019-03-09T12:03:09.233Z,65.98
2019-03-09T12:05:38.808Z,66.19
2019-03-09T12:08:08.366Z,66.39
2019-03-09T12:10:37.905Z,65.20
2019-03-09T12:13:07.475Z,65.48
2019-03-09T12:15:37.002Z,61.58
2019-03-09T12:18:06.488Z,61.65
2019-03-09T12:20:36.018Z,59.58
2019-03-09T12:23:15.683Z,56.77
2019-03-09T12:25:45.192Z,57.87
2019-03-09T12:28:14.781Z,57.92
2019-03-09T12:30:44.311Z,57.01
2019-03-09T12:33:13.825Z,57.60
2019-03-09T12:35:44.198Z,61.19
2019-03-09T12:38:13.894Z,62.42
2019-03-09T12:40:43.440Z,62.11
2019-03-09T12:43:13.022Z,63.74
2019-03-09T12:45:42.537Z,63.07
2019-03-09T12:48:12.105Z,62.75
2019-03-09T12:50:41.621Z,62.82
2019-03-09T12:53:11.128Z,62.52
2019-03-09T12:55:40.690Z,61.12
2019-03-09T12:58:10.383Z,60.35
2019-03-09T13:00:40.026Z,59.99
2019-03-09T13:03:09.598Z,60.17
2019-03-09T13:05:39.168Z,61.74
2019-03-09T13:08:08.727Z,62.83
2019-03-09T13:10:38.211Z,61.26
2019-03-09T13:13:07.791Z,60.82
2019-03-09T13:15:37.375Z,60.69
2019-03-09T13:18:06.873Z,61.29
2019-03-09T13:20:36.452Z,62.98
2019-03-09T13:23:06.016Z,65.19
2019-03-09T13:25:35.543Z,64.79
2019-03-09T13:28:05.106Z,65.18
2019-03-09T13:30:34.962Z,62.14
2019-03-09T13:33:04.659Z,62.20
2019-03-09T13:35:34.224Z,61.75
2019-03-09T13:38:03.804Z,62.19
2019-03-09T13:40:33.313Z,62.71
2019-03-09T13:43:02.830Z,62.45
2019-03-09T13:45:32.351Z,62.01
2019-03-09T13:48:01.840Z,59.80
2019-03-09T13:50:31.348Z,60.22
2019-03-09T13:53:00.852Z,61.91
2019-03-09T13:55:30.426Z,67.68
2019-03-09T13:57:59.937Z,68.61
2019-03-09T14:00:39.735Z,71.71
2019-03-09T14:03:03.012Z,77.33
2019-03-09T14:05:31.998Z,84.61
2019-03-09T14:08:01.510Z,87.87
2019-03-09T14:10:31.006Z,93.30
2019-03-09T14:13:01.842Z,97.99
2019-03-09T14:15:31.395Z,100.00
2019-03-09T14:18:00.964Z,99.77
2019-03-09T14:20:30.467Z,100.00
2019-03-09T14:22:59.975Z,100.00
2019-03-09T14:25:29.480Z,100.00
2019-03-09T14:27:59.024Z,100.00
2019-03-09T14:30:28.526Z,100.00
2019-03-09T14:32:58.047Z,100.00
2019-03-09T14:35:27.564Z,100.00
2019-03-09T14:37:57.484Z,98.00
2019-03-09T14:40:26.964Z,96.87
2019-03-09T14:42:57.740Z,95.99
2019-03-09T14:45:27.327Z,92.67
2019-03-09T14:47:56.975Z,89.64
2019-03-09T14:50:26.495Z,90.26
2019-03-09T14:52:55.995Z,90.65
2019-03-09T14:55:25.505Z,88.74
2019-03-09T14:57:55.016Z,88.45
2019-03-09T15:00:27.115Z,89.51
2019-03-09T15:02:56.636Z,86.87
2019-03-09T15:05:26.213Z,85.26
2019-03-09T15:07:55.743Z,84.89
2019-03-09T15:10:25.242Z,90.34
2019-03-09T15:12:54.771Z,89.83
2019-03-09T15:15:24.381Z,90.61
2019-03-09T15:17:53.978Z,90.16
2019-03-09T15:20:23.528Z,88.32
2019-03-09T15:22:53.114Z,87.38
2019-03-09T15:25:22.717Z,87.79
2019-03-09T15:27:52.279Z,85.78
2019-03-09T15:30:22.117Z,85.90
2019-03-09T15:32:51.678Z,84.61
2019-03-09T15:35:21.221Z,85.58
2019-03-09T15:37:50.671Z,86.64
2019-03-09T15:40:21.108Z,86.04
2019-03-09T15:42:50.704Z,85.61
2019-03-09T15:45:21.086Z,83.92
2019-03-09T15:47:50.681Z,83.44
2019-03-09T15:50:22.171Z,84.77
2019-03-09T15:52:51.841Z,84.55
2019-03-09T15:55:21.482Z,83.35
2019-03-09T15:57:51.114Z,81.85
2019-03-09T16:00:25.066Z,79.22
2019-03-09T16:02:54.728Z,77.24
2019-03-09T16:05:24.240Z,75.30
2019-03-09T16:07:53.859Z,75.93
2019-03-09T16:10:23.737Z,77.19
2019-03-09T16:12:53.484Z,77.41
2019-03-09T16:15:23.065Z,82.64
2019-03-09T16:17:52.628Z,87.70
2019-03-09T16:20:28.261Z,84.92
2019-03-09T16:22:57.785Z,86.48
2019-03-09T16:25:28.994Z,87.69
2019-03-09T16:27:59.100Z,88.16
2019-03-09T16:30:28.632Z,94.94
2019-03-09T16:32:58.126Z,99.60
2019-03-09T16:35:27.665Z,100.00
2019-03-09T16:37:57.151Z,100.00
2019-03-09T16:40:27.020Z,100.00
2019-03-09T16:42:57.927Z,100.00
2019-03-09T16:45:27.406Z,100.00
2019-03-09T16:47:56.912Z,99.90
2019-03-09T16:50:26.511Z,98.77
2019-03-09T16:52:56.070Z,98.48
2019-03-09T16:55:25.643Z,97.34
2019-03-09T16:57:55.236Z,94.75
2019-03-09T17:00:25.669Z,92.37
2019-03-09T17:02:55.171Z,87.90
2019-03-09T17:05:24.757Z,85.08
2019-03-09T17:07:54.325Z,85.69
2019-03-09T17:10:23.860Z,79.14
2019-03-09T17:12:53.514Z,78.00
2019-03-09T17:15:26.352Z,78.88
2019-03-09T17:17:55.867Z,76.94
2019-03-09T17:20:25.382Z,75.03
2019-03-09T17:22:54.894Z,74.40
2019-03-09T17:25:24.569Z,78.25
2019-03-09T17:27:54.162Z,82.41
2019-03-09T17:30:23.794Z,82.57
2019-03-09T17:32:53.279Z,82.65
2019-03-09T17:35:22.937Z,82.61
2019-03-09T17:37:52.467Z,82.80
2019-03-09T17:40:22.083Z,84.13
2019-03-09T17:42:51.540Z,85.19
2019-03-09T17:45:28.238Z,83.01
2019-03-09T17:47:57.853Z,82.76
2019-03-09T17:50:27.489Z,83.33
2019-03-09T17:52:57.052Z,80.86
2019-03-09T17:55:26.593Z,79.73
2019-03-09T17:57:56.045Z,80.58
2019-03-09T18:00:42.207Z,79.94
2019-03-09T18:03:05.967Z,79.40
2019-03-09T18:05:35.607Z,77.65
2019-03-09T18:08:05.256Z,76.20
2019-03-09T18:11:00.114Z,74.60
2019-03-09T18:13:29.668Z,72.66
2019-03-09T18:15:59.127Z,72.72
2019-03-09T18:18:28.617Z,72.49
2019-03-09T18:20:58.188Z,72.77
2019-03-09T18:23:27.719Z,72.17
2019-03-09T18:25:57.279Z,72.53
2019-03-09T18:28:26.929Z,72.96
2019-03-09T18:30:56.433Z,72.89
2019-03-09T18:33:26.023Z,73.19
2019-03-09T18:35:55.608Z,74.09
2019-03-09T18:38:25.126Z,73.93
2019-03-09T18:40:54.702Z,73.11
2019-03-09T18:43:24.267Z,71.21
2019-03-09T18:45:53.791Z,71.47
2019-03-09T18:48:23.452Z,71.76
2019-03-09T18:50:52.971Z,72.40
2019-03-09T18:53:22.636Z,73.28
2019-03-09T18:55:59.156Z,72.50
2019-03-09T18:58:23.451Z,71.87
2019-03-09T19:00:53.131Z,71.16
2019-03-09T19:03:22.646Z,69.97
2019-03-09T19:05:52.221Z,69.88
2019-03-09T19:08:21.717Z,69.67
2019-03-09T19:10:51.222Z,70.98
2019-03-09T19:13:20.744Z,70.32
2019-03-09T19:15:50.278Z,68.70
2019-03-09T19:18:19.771Z,67.31
2019-03-09T19:20:49.366Z,67.37
2019-03-09T19:23:18.868Z,67.42
2019-03-09T19:25:48.340Z,67.02
2019-03-09T19:28:18.003Z,67.44
2019-03-09T19:30:50.573Z,66.14
2019-03-09T19:33:20.088Z,66.36
2019-03-09T19:35:49.678Z,66.49
2019-03-09T19:38:19.161Z,66.77
2019-03-09T19:40:48.740Z,65.73
2019-03-09T19:43:18.268Z,66.11
2019-03-09T19:45:47.829Z,65.78
2019-03-09T19:48:17.418Z,65.93
2019-03-09T19:50:46.981Z,66.04
2019-03-09T19:53:16.450Z,67.02
2019-03-09T19:55:45.997Z,66.71
2019-03-09T19:58:15.485Z,67.76
2019-03-09T20:00:45.029Z,67.12
2019-03-09T20:03:14.551Z,67.09
2019-03-09T20:05:44.193Z,66.52
2019-03-09T20:08:13.853Z,67.57
2019-03-09T20:10:43.393Z,68.51
2019-03-09T20:13:12.952Z,68.69
2019-03-09T20:15:42.652Z,69.96
2019-03-09T20:18:12.201Z,70.96
2019-03-09T20:20:41.700Z,69.27
2019-03-09T20:23:11.212Z,69.43
2019-03-09T20:25:40.732Z,70.31
2019-03-09T20:28:10.305Z,71.30
2019-03-09T20:30:39.846Z,72.44
2019-03-09T20:33:09.367Z,72.25
2019-03-09T20:35:38.971Z,71.62
2019-03-09T20:38:08.539Z,72.23
2019-03-09T20:40:38.036Z,71.48
2019-03-09T20:43:07.594Z,70.95
2019-03-09T20:45:37.084Z,70.77
2019-03-09T20:48:06.587Z,71.45
2019-03-09T20:50:36.153Z,70.75
2019-03-09T20:53:05.733Z,71.91
2019-03-09T20:55:35.288Z,71.48
2019-03-09T20:58:04.859Z,71.11
2019-03-09T21:00:34.377Z,71.08
2019-03-09T21:03:03.862Z,73.19
2019-03-09T21:05:33.378Z,73.20
2019-03-09T21:08:02.927Z,72.72
2019-03-09T21:10:32.408Z,73.11
2019-03-09T21:13:10.892Z,70.98
2019-03-09T21:15:40.497Z,70.35
2019-03-09T21:18:09.974Z,72.46
2019-03-09T21:20:39.552Z,72.14
2019-03-09T21:23:09.053Z,72.89
2019-03-09T21:25:38.598Z,72.72
2019-03-09T21:28:08.175Z,71.79
2019-03-09T21:30:37.665Z,72.24
2019-03-09T21:33:07.173Z,72.00
2019-03-09T21:35:36.818Z,71.35
2019-03-09T21:38:06.427Z,73.29
2019-03-09T21:40:35.893Z,75.22
2019-03-09T21:43:05.657Z,74.47
2019-03-09T21:45:35.151Z,77.55
2019-03-09T21:48:04.739Z,76.85
2019-03-09T21:50:34.333Z,75.33
2019-03-09T21:53:03.883Z,76.13
2019-03-09T21:55:33.435Z,77.25
2019-03-09T21:58:02.906Z,79.66
2019-03-09T22:00:32.486Z,79.85
2019-03-09T22:03:01.988Z,80.48
2019-03-09T22:05:31.565Z,82.55
2019-03-09T22:08:01.138Z,82.89
2019-03-09T22:10:30.648Z,82.91
2019-03-09T22:13:00.115Z,84.55
2019-03-09T22:15:29.615Z,84.58
2019-03-09T22:17:59.367Z,87.63
2019-03-09T22:20:28.886Z,88.34
2019-03-09T22:22:58.398Z,89.50
2019-03-09T22:25:27.905Z,90.43
2019-03-09T22:27:57.579Z,92.37
2019-03-09T22:30:27.085Z,92.87
2019-03-09T22:32:56.579Z,93.49
2019-03-09T22:35:26.179Z,94.56
2019-03-09T22:37:55.675Z,95.66
2019-03-09T22:40:25.196Z,95.53
2019-03-09T22:42:54.763Z,96.15
2019-03-09T22:45:24.395Z,96.17
2019-03-09T22:47:53.899Z,96.42
2019-03-09T22:50:26.328Z,96.55
2019-03-09T22:52:56.191Z,96.96
2019-03-09T22:55:25.749Z,96.91
2019-03-09T22:57:55.241Z,96.86
2019-03-09T23:00:27.691Z,96.40
2019-03-09T23:02:57.607Z,96.21
2019-03-09T23:05:27.228Z,96.54
2019-03-09T23:07:56.794Z,95.73
2019-03-09T23:10:28.304Z,96.10
2019-03-09T23:12:59.587Z,95.46
2019-03-09T23:15:29.309Z,96.24
2019-03-09T23:17:58.807Z,95.31
2019-03-09T23:20:28.345Z,95.21
2019-03-09T23:22:57.879Z,95.77
2019-03-09T23:25:27.463Z,95.27
2019-03-09T23:27:56.957Z,95.88
2019-03-09T23:30:26.525Z,95.28
2019-03-09T23:32:56.037Z,94.56
2019-03-09T23:35:25.560Z,94.05
2019-03-09T23:37:55.123Z,93.13
2019-03-09T23:40:25.017Z,93.03
2019-03-09T23:42:54.611Z,93.27
2019-03-09T23:45:27.928Z,93.39
2019-03-09T23:47:57.591Z,92.60
2019-03-09T23:50:27.594Z,93.05
2019-03-09T23:52:57.375Z,91.54
2019-03-09T23:55:26.931Z,92.22
2019-03-09T23:57:56.490Z,90.86
